createdAt,value
2019-01-27T00:03:42.198Z,4.62
2019-01-27T00:08:51.306Z,4.99
2019-01-27T00:14:00.519Z,4.26
2019-01-27T00:19:09.649Z,4.68
2019-01-27T00:24:18.875Z,3.93
2019-01-27T00:29:28.020Z,4.17
2019-01-27T00:34:37.148Z,3.52
2019-01-27T00:39:46.278Z,4.84
2019-01-27T00:44:55.568Z,6.85
2019-01-27T00:50:04.664Z,5.79
2019-01-27T00:55:13.808Z,6.90
2019-01-27T01:00:22.905Z,6.87
2019-01-27T01:05:32.201Z,6.79
2019-01-27T01:10:41.351Z,5.05
2019-01-27T01:15:50.594Z,5.48
2019-01-27T01:20:59.726Z,4.33
2019-01-27T01:26:08.897Z,5.88
2019-01-27T01:31:17.996Z,4.50
2019-01-27T01:36:27.281Z,4.85
2019-01-27T01:41:36.421Z,5.45
2019-01-27T01:46:45.569Z,4.89
2019-01-27T01:51:54.672Z,5.14
2019-01-27T01:57:03.810Z,5.75
2019-01-27T02:02:12.925Z,3.60
2019-01-27T02:07:22.235Z,6.17
2019-01-27T02:12:31.357Z,4.15
2019-01-27T02:17:40.759Z,3.82
2019-01-27T02:22:49.859Z,3.88
2019-01-27T02:27:59.027Z,5.33
2019-01-27T02:33:08.137Z,5.34
2019-01-27T02:38:17.305Z,5.82
2019-01-27T02:43:26.409Z,3.08
2019-01-27T02:48:35.624Z,2.48
2019-01-27T02:53:43.727Z,4.89
2019-01-27T02:58:52.993Z,4.20
2019-01-27T03:04:02.184Z,4.10
2019-01-27T03:09:11.391Z,6.03
2019-01-27T03:14:20.483Z,5.61
2019-01-27T03:19:29.609Z,7.89
2019-01-27T03:24:38.718Z,5.09
2019-01-27T03:29:47.864Z,7.40
2019-01-27T03:34:56.953Z,7.99
2019-01-27T03:40:06.313Z,4.79
2019-01-27T03:45:15.389Z,6.77
2019-01-27T03:50:24.671Z,5.33
2019-01-27T03:55:33.773Z,10.70
2019-01-27T04:00:42.941Z,14.17
2019-01-27T04:05:52.053Z,11.35
2019-01-27T04:11:01.197Z,12.87
2019-01-27T04:16:10.373Z,15.44
2019-01-27T04:21:19.595Z,14.74
2019-01-27T04:26:28.672Z,13.39
2019-01-27T04:31:37.984Z,13.09
2019-01-27T04:36:47.083Z,7.67
2019-01-27T04:41:56.325Z,9.56
2019-01-27T04:47:05.417Z,7.08
2019-01-27T04:52:14.574Z,9.89
2019-01-27T04:57:23.726Z,9.90
2019-01-27T05:02:32.896Z,11.93
2019-01-27T05:07:42.076Z,13.72
2019-01-27T05:12:51.212Z,11.17
2019-01-27T05:18:00.439Z,11.89
2019-01-27T05:23:09.623Z,11.89
2019-01-27T05:28:18.729Z,11.37
2019-01-27T05:33:28.022Z,8.43
2019-01-27T05:38:37.136Z,8.45
2019-01-27T05:43:46.325Z,9.41
2019-01-27T05:48:55.439Z,11.37
2019-01-27T05:54:04.562Z,8.17
2019-01-27T05:59:13.814Z,9.79
2019-01-27T06:04:23.057Z,8.62
2019-01-27T06:09:32.164Z,7.24
2019-01-27T06:14:41.298Z,7.14
2019-01-27T06:19:50.417Z,9.79
2019-01-27T06:24:59.589Z,6.89
2019-01-27T06:30:08.721Z,13.10
2019-01-27T06:35:18.029Z,14.41
2019-01-27T06:40:27.117Z,10.24
2019-01-27T06:45:36.273Z,8.75
2019-01-27T06:50:45.410Z,17.78
2019-01-27T06:55:54.594Z,10.55
2019-01-27T07:01:03.925Z,8.66
2019-01-27T07:06:13.071Z,7.05
2019-01-27T07:11:22.311Z,12.33
2019-01-27T07:16:31.453Z,14.38
2019-01-27T07:21:40.565Z,17.60
2019-01-27T07:26:49.816Z,11.72
2019-01-27T07:31:58.938Z,12.94
2019-01-27T07:37:08.324Z,16.55
2019-01-27T07:42:17.443Z,12.07
2019-01-27T07:47:26.597Z,14.47
2019-01-27T07:52:35.720Z,15.59
2019-01-27T07:57:45.077Z,14.38
2019-01-27T08:02:54.171Z,13.59
2019-01-27T08:08:03.294Z,12.58
2019-01-27T08:13:12.418Z,12.00
2019-01-27T08:18:21.601Z,13.60
2019-01-27T08:23:30.714Z,10.03
2019-01-27T08:28:40.112Z,9.90
2019-01-27T08:33:49.209Z,9.74
2019-01-27T08:38:58.360Z,7.83
2019-01-27T08:44:07.516Z,10.41
2019-01-27T08:49:16.794Z,9.81
2019-01-27T08:54:25.909Z,9.56
2019-01-27T08:59:35.092Z,9.54
2019-01-27T09:04:44.208Z,9.15
2019-01-27T09:09:53.412Z,10.25
2019-01-27T09:15:02.477Z,8.18
2019-01-27T09:20:11.641Z,12.93
2019-01-27T09:25:20.790Z,11.74
2019-01-27T09:30:30.184Z,10.19
2019-01-27T09:35:39.295Z,13.06
2019-01-27T09:40:48.526Z,12.38
2019-01-27T09:46:05.088Z,17.07
2019-01-27T09:51:06.444Z,7.68
2019-01-27T09:56:15.544Z,14.97
2019-01-27T10:01:24.828Z,12.11
2019-01-27T10:06:32.472Z,15.26
2019-01-27T10:11:42.964Z,11.10
2019-01-27T10:16:42.048Z,9.87
2019-01-27T10:21:51.488Z,8.98
2019-01-27T10:27:02.658Z,8.52
2019-01-27T10:32:06.115Z,10.07
2019-01-27T10:37:11.813Z,9.79
2019-01-27T10:42:13.978Z,12.88
2019-01-27T10:47:23.096Z,8.40
2019-01-27T10:52:32.432Z,13.37
2019-01-27T10:57:42.510Z,9.91
2019-01-27T11:02:48.749Z,12.99
2019-01-27T11:07:57.950Z,11.33
2019-01-27T11:13:07.105Z,11.79
2019-01-27T11:18:16.233Z,14.91
2019-01-27T11:23:25.482Z,16.94
2019-01-27T11:28:34.583Z,12.43
2019-01-27T11:33:43.841Z,7.70
2019-01-27T11:38:52.944Z,8.09
2019-01-27T11:44:02.261Z,7.63
2019-01-27T11:49:11.380Z,6.97
2019-01-27T11:54:20.963Z,8.95
2019-01-27T11:59:30.122Z,11.36
2019-01-27T12:04:39.241Z,9.70
2019-01-27T12:09:48.358Z,14.57
2019-01-27T12:14:57.505Z,9.54
2019-01-27T12:20:06.630Z,13.55
2019-01-27T12:25:16.218Z,15.65
2019-01-27T12:30:25.405Z,13.97
2019-01-27T12:35:34.648Z,9.57
2019-01-27T12:40:44.062Z,9.33
2019-01-27T12:45:53.247Z,12.85
2019-01-27T12:51:02.356Z,9.40
2019-01-27T12:56:11.521Z,13.18
2019-01-27T13:01:20.625Z,12.94
2019-01-27T13:06:29.838Z,15.21
2019-01-27T13:11:38.967Z,14.64
2019-01-27T13:16:48.245Z,11.21
2019-01-27T13:21:57.378Z,10.99
2019-01-27T13:27:06.563Z,13.33
2019-01-27T13:32:15.705Z,11.73
2019-01-27T13:37:24.956Z,8.02
2019-01-27T13:42:34.081Z,12.67
2019-01-27T13:47:43.226Z,11.10
2019-01-27T13:52:52.336Z,11.68
2019-01-27T13:58:01.479Z,11.52
2019-01-27T14:03:10.576Z,9.53
2019-01-27T14:08:20.241Z,8.72
2019-01-27T14:13:29.493Z,10.07
2019-01-27T14:18:38.620Z,14.00
2019-01-27T14:23:47.783Z,10.88
2019-01-27T14:28:56.913Z,11.24
2019-01-27T14:34:06.045Z,13.58
2019-01-27T14:39:15.382Z,10.00
2019-01-27T14:44:24.476Z,11.24
2019-01-27T14:49:33.711Z,9.58
2019-01-27T14:54:42.854Z,6.51
2019-01-27T14:59:52.110Z,6.03
2019-01-27T15:05:01.207Z,8.01
2019-01-27T15:10:10.391Z,12.75
2019-01-27T15:15:19.553Z,12.00
2019-01-27T15:20:28.688Z,13.59
2019-01-27T15:25:37.784Z,10.49
2019-01-27T15:30:47.070Z,9.74
2019-01-27T15:35:56.150Z,10.37
2019-01-27T15:41:05.753Z,11.93
2019-01-27T15:46:15.031Z,9.74
2019-01-27T15:51:24.254Z,12.72
2019-01-27T15:56:33.377Z,11.42
2019-01-27T16:01:44.608Z,15.94
2019-01-27T16:06:43.731Z,12.95
2019-01-27T16:11:52.885Z,9.47
2019-01-27T16:17:01.978Z,13.04
2019-01-27T16:22:11.172Z,7.72
2019-01-27T16:27:20.350Z,9.29
2019-01-27T16:32:29.515Z,12.33
2019-01-27T16:37:38.660Z,8.45
2019-01-27T16:42:47.956Z,19.29
2019-01-27T16:47:57.080Z,12.47
2019-01-27T16:53:06.294Z,10.73
2019-01-27T16:58:15.384Z,9.94
2019-01-27T17:03:25.107Z,10.08
2019-01-27T17:08:34.232Z,9.30
2019-01-27T17:13:43.399Z,9.08
2019-01-27T17:18:52.532Z,9.40
2019-01-27T17:24:01.746Z,10.98
2019-01-27T17:29:10.885Z,9.61
2019-01-27T17:34:20.233Z,10.17
2019-01-27T17:39:29.346Z,8.64
2019-01-27T17:44:38.674Z,8.44
2019-01-27T17:49:47.777Z,7.36
2019-01-27T17:54:56.911Z,7.95
2019-01-27T18:00:06.013Z,7.17
2019-01-27T18:05:15.282Z,7.77
2019-01-27T18:10:24.363Z,9.73
2019-01-27T18:15:34.612Z,8.01
2019-01-27T18:20:42.282Z,13.79
2019-01-27T18:25:51.538Z,9.10
2019-01-27T18:31:00.641Z,9.79
2019-01-27T18:36:09.977Z,5.13
2019-01-27T18:41:19.073Z,12.75
2019-01-27T18:46:28.318Z,11.66
2019-01-27T18:51:37.460Z,12.01
2019-01-27T18:56:46.633Z,12.07
2019-01-27T19:01:58.735Z,7.60
2019-01-27T19:06:57.865Z,11.67
2019-01-27T19:12:07.060Z,9.29
2019-01-27T19:17:16.227Z,11.57
2019-01-27T19:22:25.405Z,11.26
2019-01-27T19:27:34.596Z,11.72
2019-01-27T19:32:43.732Z,7.54
2019-01-27T19:37:53.073Z,9.41
2019-01-27T19:43:03.268Z,11.37
2019-01-27T19:48:00.952Z,20.83
2019-01-27T19:53:10.103Z,6.39
2019-01-27T19:58:19.301Z,13.68
2019-01-27T20:03:28.434Z,9.36
2019-01-27T20:08:37.637Z,13.18
2019-01-27T20:13:46.734Z,11.43
2019-01-27T20:18:56.108Z,9.78
2019-01-27T20:24:05.215Z,10.31
2019-01-27T20:29:14.512Z,10.59
2019-01-27T20:34:23.645Z,10.82
2019-01-27T20:39:33.023Z,11.17
2019-01-27T20:44:42.043Z,13.17
2019-01-27T20:49:51.309Z,10.04
2019-01-27T20:55:00.410Z,11.34
2019-01-27T21:00:09.556Z,12.64
2019-01-27T21:05:18.759Z,11.84
2019-01-27T21:10:27.981Z,11.38
2019-01-27T21:15:37.095Z,12.02
2019-01-27T21:20:46.368Z,10.32
2019-01-27T21:25:55.441Z,14.79
2019-01-27T21:31:04.592Z,14.25
2019-01-27T21:36:13.661Z,19.99
2019-01-27T21:41:22.777Z,15.86
2019-01-27T21:46:31.873Z,17.37
2019-01-27T21:51:41.028Z,13.49
2019-01-27T21:56:50.151Z,17.45
2019-01-27T22:01:59.377Z,18.14
2019-01-27T22:07:08.487Z,18.10
2019-01-27T22:12:17.817Z,15.84
2019-01-27T22:17:26.950Z,17.31
2019-01-27T22:22:36.213Z,16.46
2019-01-27T22:27:45.732Z,13.10
2019-01-27T22:32:54.363Z,12.44
2019-01-27T22:38:03.491Z,13.28
2019-01-27T22:43:12.958Z,19.88
2019-01-27T22:48:22.132Z,20.20
2019-01-27T22:53:31.497Z,22.01
2019-01-27T22:58:40.588Z,19.47
2019-01-27T23:03:49.768Z,22.60
2019-01-27T23:08:58.866Z,19.20
2019-01-27T23:14:08.139Z,15.03
2019-01-27T23:19:17.253Z,21.95
2019-01-27T23:24:26.515Z,15.98
2019-01-27T23:29:35.608Z,19.54
2019-01-27T23:34:44.904Z,14.74
2019-01-27T23:39:53.976Z,16.14
2019-01-27T23:45:03.105Z,15.42
2019-01-27T23:50:12.267Z,21.25
2019-01-27T23:55:21.356Z,23.12
